sensor_id;sensor_type;location;lat;lon;timestamp;pressure;altitude;pressure_sealevel;temperature;humidity
10946;BME280;5525;42.648;23.368;2023-02-23T00:00:23;94522.66;;;6.53;100.00
10946;BME280;5525;42.648;23.368;2023-02-23T00:02:53;94522.41;;;6.41;100.00
10946;BME280;5525;42.648;23.368;2023-02-23T00:05:23;94523.56;;;6.49;100.00
10946;BME280;5525;42.648;23.368;2023-02-23T00:07:50;94522.28;;;6.46;100.00
10946;BME280;5525;42.648;23.368;2023-02-23T00:10:17;94517.75;;;6.47;100.00
10946;BME280;5525;42.648;23.368;2023-02-23T00:12:47;94527.25;;;6.53;100.00
10946;BME280;5525;42.648;23.368;2023-02-23T00:15:14;94532.13;;;6.51;100.00
10946;BME280;5525;42.648;23.368;2023-02-23T00:17:42;94525.44;;;6.62;100.00
10946;BME280;5525;42.648;23.368;2023-02-23T00:20:12;94531.63;;;6.62;100.00
10946;BME280;5525;42.648;23.368;2023-02-23T00:22:41;94527.13;;;6.71;100.00
10946;BME280;5525;42.648;23.368;2023-02-23T00:25:08;94531.47;;;6.67;100.00
10946;BME280;5525;42.648;23.368;2023-02-23T00:27:36;94532.28;;;6.68;100.00
10946;BME280;5525;42.648;23.368;2023-02-23T00:30:11;94529.69;;;6.63;100.00
10946;BME280;5525;42.648;23.368;2023-02-23T00:32:38;94531.06;;;6.74;100.00
10946;BME280;5525;42.648;23.368;2023-02-23T00:35:06;94534.97;;;6.68;100.00
10946;BME280;5525;42.648;23.368;2023-02-23T00:37:36;94538.75;;;6.67;100.00
10946;BME280;5525;42.648;23.368;2023-02-23T00:40:04;94530.69;;;6.67;100.00
10946;BME280;5525;42.648;23.368;2023-02-23T00:42:32;94539.06;;;6.65;100.00
10946;BME280;5525;42.648;23.368;2023-02-23T00:45:00;94527.31;;;6.61;100.00
10946;BME280;5525;42.648;23.368;2023-02-23T00:47:34;94531.72;;;6.57;100.00
10946;BME280;5525;42.648;23.368;2023-02-23T00:50:02;94531.31;;;6.50;100.00
10946;BME280;5525;42.648;23.368;2023-02-23T00:52:29;94532.06;;;6.42;100.00
10946;BME280;5525;42.648;23.368;2023-02-23T00:54:59;94525.00;;;6.33;100.00
10946;BME280;5525;42.648;23.368;2023-02-23T00:57:26;94526.50;;;6.25;100.00
10946;BME280;5525;42.648;23.368;2023-02-23T00:59:53;94522.66;;;6.18;100.00
10946;BME280;5525;42.648;23.368;2023-02-23T01:02:19;94529.28;;;6.20;100.00
10946;BME280;5525;42.648;23.368;2023-02-23T01:04:48;94525.72;;;6.25;100.00
10946;BME280;5525;42.648;23.368;2023-02-23T01:07:14;94523.13;;;6.20;100.00
10946;BME280;5525;42.648;23.368;2023-02-23T01:09:41;94519.16;;;6.17;100.00
10946;BME280;5525;42.648;23.368;2023-02-23T01:12:08;94530.69;;;6.18;100.00
10946;BME280;5525;42.648;23.368;2023-02-23T01:14:35;94525.09;;;6.28;100.00
10946;BME280;5525;42.648;23.368;2023-02-23T01:17:03;94529.66;;;6.41;100.00
10946;BME280;5525;42.648;23.368;2023-02-23T01:19:29;94521.13;;;6.39;100.00
10946;BME280;5525;42.648;23.368;2023-02-23T01:21:59;94518.66;;;6.42;100.00
10946;BME280;5525;42.648;23.368;2023-02-23T01:24:27;94516.44;;;6.44;100.00
10946;BME280;5525;42.648;23.368;2023-02-23T01:26:54;94516.84;;;6.51;100.00
10946;BME280;5525;42.648;23.368;2023-02-23T01:29:20;94516.31;;;6.49;100.00
10946;BME280;5525;42.648;23.368;2023-02-23T01:31:48;94512.25;;;6.52;100.00
10946;BME280;5525;42.648;23.368;2023-02-23T01:34:17;94515.31;;;6.59;100.00
10946;BME280;5525;42.648;23.368;2023-02-23T01:36:45;94525.09;;;6.41;100.00
10946;BME280;5525;42.648;23.368;2023-02-23T01:39:16;94526.50;;;6.25;100.00
10946;BME280;5525;42.648;23.368;2023-02-23T01:41:43;94527.81;;;6.14;100.00
10946;BME280;5525;42.648;23.368;2023-02-23T01:47:12;94512.13;;;6.08;100.00
10946;BME280;5525;42.648;23.368;2023-02-23T01:49:39;94510.13;;;6.00;100.00
10946;BME280;5525;42.648;23.368;2023-02-23T01:52:09;94513.13;;;5.98;100.00
10946;BME280;5525;42.648;23.368;2023-02-23T01:54:41;94512.06;;;5.86;100.00
10946;BME280;5525;42.648;23.368;2023-02-23T01:57:16;94511.59;;;5.79;100.00
10946;BME280;5525;42.648;23.368;2023-02-23T01:59:44;94513.78;;;5.77;100.00
10946;BME280;5525;42.648;23.368;2023-02-23T02:02:12;94508.41;;;5.63;100.00
10946;BME280;5525;42.648;23.368;2023-02-23T02:04:41;94509.13;;;5.69;100.00
10946;BME280;5525;42.648;23.368;2023-02-23T02:07:09;94514.19;;;5.70;100.00
10946;BME280;5525;42.648;23.368;2023-02-23T02:09:40;94506.84;;;5.76;100.00
10946;BME280;5525;42.648;23.368;2023-02-23T02:12:27;94503.28;;;5.80;100.00
10946;BME280;5525;42.648;23.368;2023-02-23T02:14:56;94507.75;;;5.85;100.00
10946;BME280;5525;42.648;23.368;2023-02-23T02:17:30;94502.91;;;5.87;100.00
10946;BME280;5525;42.648;23.368;2023-02-23T02:23:30;94505.22;;;5.34;100.00
10946;BME280;5525;42.648;23.368;2023-02-23T02:26:12;94514.19;;;5.24;100.00
10946;BME280;5525;42.648;23.368;2023-02-23T02:28:58;94517.09;;;5.28;100.00
10946;BME280;5525;42.648;23.368;2023-02-23T02:38:05;94513.38;;;5.10;100.00
10946;BME280;5525;42.648;23.368;2023-02-23T02:40:41;94510.31;;;4.85;100.00
10946;BME280;5525;42.648;23.368;2023-02-23T02:43:23;94516.25;;;4.82;100.00
10946;BME280;5525;42.648;23.368;2023-02-23T02:45:54;94520.75;;;4.68;100.00
10946;BME280;5525;42.648;23.368;2023-02-23T02:48:29;94510.84;;;4.68;100.00
10946;BME280;5525;42.648;23.368;2023-02-23T02:51:02;94518.06;;;4.68;100.00
10946;BME280;5525;42.648;23.368;2023-02-23T02:53:39;94519.28;;;4.75;100.00
10946;BME280;5525;42.648;23.368;2023-02-23T02:56:08;94512.91;;;4.90;100.00
10946;BME280;5525;42.648;23.368;2023-02-23T02:58:37;94513.81;;;5.17;100.00
10946;BME280;5525;42.648;23.368;2023-02-23T03:01:12;94507.56;;;5.22;100.00
10946;BME280;5525;42.648;23.368;2023-02-23T03:03:58;94515.31;;;5.23;100.00
10946;BME280;5525;42.648;23.368;2023-02-23T03:06:47;94511.66;;;5.33;100.00
10946;BME280;5525;42.648;23.368;2023-02-23T03:09:42;94503.59;;;5.19;100.00
10946;BME280;5525;42.648;23.368;2023-02-23T03:12:38;94509.59;;;4.98;100.00
10946;BME280;5525;42.648;23.368;2023-02-23T03:15:31;94512.56;;;4.96;100.00
10946;BME280;5525;42.648;23.368;2023-02-23T03:18:31;94516.94;;;4.87;100.00
10946;BME280;5525;42.648;23.368;2023-02-23T03:21:24;94518.56;;;4.88;100.00
10946;BME280;5525;42.648;23.368;2023-02-23T03:24:17;94530.09;;;4.70;100.00
10946;BME280;5525;42.648;23.368;2023-02-23T03:27:08;94532.38;;;4.58;100.00
10946;BME280;5525;42.648;23.368;2023-02-23T03:30:01;94533.97;;;4.78;100.00
10946;BME280;5525;42.648;23.368;2023-02-23T03:32:50;94525.53;;;5.03;100.00
10946;BME280;5525;42.648;23.368;2023-02-23T03:35:44;94527.19;;;5.17;100.00
10946;BME280;5525;42.648;23.368;2023-02-23T03:38:35;94529.97;;;5.26;100.00
10946;BME280;5525;42.648;23.368;2023-02-23T03:41:23;94524.75;;;5.35;100.00
10946;BME280;5525;42.648;23.368;2023-02-23T03:44:13;94523.84;;;5.26;100.00
10946;BME280;5525;42.648;23.368;2023-02-23T03:47:00;94528.72;;;5.37;100.00
10946;BME280;5525;42.648;23.368;2023-02-23T03:49:46;94532.66;;;5.26;100.00
10946;BME280;5525;42.648;23.368;2023-02-23T03:52:35;94526.75;;;5.10;100.00
10946;BME280;5525;42.648;23.368;2023-02-23T03:55:27;94544.16;;;4.94;100.00
10946;BME280;5525;42.648;23.368;2023-02-23T03:58:17;94549.94;;;4.83;100.00
10946;BME280;5525;42.648;23.368;2023-02-23T04:01:06;94543.50;;;4.84;100.00
10946;BME280;5525;42.648;23.368;2023-02-23T04:03:54;94548.06;;;4.83;100.00
10946;BME280;5525;42.648;23.368;2023-02-23T04:06:42;94549.34;;;4.86;100.00
10946;BME280;5525;42.648;23.368;2023-02-23T04:09:27;94546.19;;;4.84;100.00
10946;BME280;5525;42.648;23.368;2023-02-23T04:12:14;94555.50;;;4.68;100.00
10946;BME280;5525;42.648;23.368;2023-02-23T04:15:04;94551.31;;;4.62;100.00
10946;BME280;5525;42.648;23.368;2023-02-23T04:17:32;94549.38;;;4.30;100.00
10946;BME280;5525;42.648;23.368;2023-02-23T04:19:59;94550.63;;;4.14;100.00
10946;BME280;5525;42.648;23.368;2023-02-23T04:22:26;94541.94;;;4.04;100.00
10946;BME280;5525;42.648;23.368;2023-02-23T04:24:53;94549.63;;;3.87;100.00
10946;BME280;5525;42.648;23.368;2023-02-23T04:27:20;94552.53;;;3.90;100.00
10946;BME280;5525;42.648;23.368;2023-02-23T04:29:47;94552.28;;;4.10;100.00
10946;BME280;5525;42.648;23.368;2023-02-23T04:32:16;94550.81;;;3.99;100.00
10946;BME280;5525;42.648;23.368;2023-02-23T04:34:44;94554.91;;;3.92;100.00
10946;BME280;5525;42.648;23.368;2023-02-23T04:37:11;94552.16;;;3.97;100.00
10946;BME280;5525;42.648;23.368;2023-02-23T04:39:39;94550.31;;;3.97;100.00
10946;BME280;5525;42.648;23.368;2023-02-23T04:42:07;94556.69;;;4.01;100.00
10946;BME280;5525;42.648;23.368;2023-02-23T04:44:33;94553.44;;;4.04;100.00
10946;BME280;5525;42.648;23.368;2023-02-23T04:47:00;94551.63;;;4.18;100.00
10946;BME280;5525;42.648;23.368;2023-02-23T04:49:27;94551.53;;;4.05;100.00
10946;BME280;5525;42.648;23.368;2023-02-23T04:51:55;94552.72;;;3.94;100.00
10946;BME280;5525;42.648;23.368;2023-02-23T04:54:21;94550.16;;;3.89;100.00
10946;BME280;5525;42.648;23.368;2023-02-23T04:56:48;94547.06;;;4.00;100.00
10946;BME280;5525;42.648;23.368;2023-02-23T04:59:15;94557.78;;;4.19;100.00
10946;BME280;5525;42.648;23.368;2023-02-23T05:01:41;94550.19;;;4.07;100.00
10946;BME280;5525;42.648;23.368;2023-02-23T05:04:08;94555.41;;;4.17;100.00
10946;BME280;5525;42.648;23.368;2023-02-23T05:06:35;94558.63;;;4.14;100.00
10946;BME280;5525;42.648;23.368;2023-02-23T05:09:03;94552.16;;;4.20;100.00
10946;BME280;5525;42.648;23.368;2023-02-23T05:11:31;94551.28;;;4.25;100.00
10946;BME280;5525;42.648;23.368;2023-02-23T05:13:58;94559.19;;;4.35;100.00
10946;BME280;5525;42.648;23.368;2023-02-23T05:16:24;94558.75;;;4.46;100.00
10946;BME280;5525;42.648;23.368;2023-02-23T05:18:52;94562.66;;;4.54;100.00
10946;BME280;5525;42.648;23.368;2023-02-23T05:21:19;94565.34;;;4.54;100.00
10946;BME280;5525;42.648;23.368;2023-02-23T05:23:46;94563.53;;;4.68;100.00
10946;BME280;5525;42.648;23.368;2023-02-23T05:26:14;94571.78;;;4.71;100.00
10946;BME280;5525;42.648;23.368;2023-02-23T05:28:41;94562.09;;;4.75;100.00
10946;BME280;5525;42.648;23.368;2023-02-23T05:31:08;94571.13;;;4.79;100.00
10946;BME280;5525;42.648;23.368;2023-02-23T05:33:36;94567.78;;;4.87;100.00
10946;BME280;5525;42.648;23.368;2023-02-23T05:36:08;94573.13;;;4.87;100.00
10946;BME280;5525;42.648;23.368;2023-02-23T05:38:36;94577.34;;;4.93;100.00
10946;BME280;5525;42.648;23.368;2023-02-23T05:41:04;94571.72;;;4.95;100.00
10946;BME280;5525;42.648;23.368;2023-02-23T05:43:34;94582.53;;;5.03;100.00
10946;BME280;5525;42.648;23.368;2023-02-23T05:46:05;94579.56;;;4.86;100.00
10946;BME280;5525;42.648;23.368;2023-02-23T05:48:32;94582.19;;;4.91;100.00
10946;BME280;5525;42.648;23.368;2023-02-23T05:51:00;94586.16;;;4.94;100.00
10946;BME280;5525;42.648;23.368;2023-02-23T05:53:27;94589.41;;;4.91;100.00
10946;BME280;5525;42.648;23.368;2023-02-23T05:55:54;94589.41;;;4.91;100.00
10946;BME280;5525;42.648;23.368;2023-02-23T05:58:21;94598.25;;;4.91;100.00
10946;BME280;5525;42.648;23.368;2023-02-23T06:00:49;94602.72;;;4.96;100.00
10946;BME280;5525;42.648;23.368;2023-02-23T06:03:16;94603.81;;;4.95;100.00
10946;BME280;5525;42.648;23.368;2023-02-23T06:05:48;94608.19;;;5.04;100.00
10946;BME280;5525;42.648;23.368;2023-02-23T06:08:15;94600.44;;;5.21;100.00
10946;BME280;5525;42.648;23.368;2023-02-23T06:10:42;94606.81;;;5.26;100.00
10946;BME280;5525;42.648;23.368;2023-02-23T06:13:08;94607.75;;;5.16;100.00
10946;BME280;5525;42.648;23.368;2023-02-23T06:15:35;94613.03;;;5.21;100.00
10946;BME280;5525;42.648;23.368;2023-02-23T06:18:04;94606.81;;;5.26;100.00
10946;BME280;5525;42.648;23.368;2023-02-23T06:20:32;94607.22;;;5.33;100.00
10946;BME280;5525;42.648;23.368;2023-02-23T06:22:58;94614.38;;;5.37;100.00
10946;BME280;5525;42.648;23.368;2023-02-23T06:25:26;94609.47;;;5.44;100.00
10946;BME280;5525;42.648;23.368;2023-02-23T06:27:52;94609.88;;;5.51;100.00
10946;BME280;5525;42.648;23.368;2023-02-23T06:30:19;94612.41;;;5.75;100.00
10946;BME280;5525;42.648;23.368;2023-02-23T06:32:47;94618.72;;;5.84;100.00
10946;BME280;5525;42.648;23.368;2023-02-23T06:35:15;94621.00;;;5.90;100.00
10946;BME280;5525;42.648;23.368;2023-02-23T06:37:42;94616.25;;;6.01;100.00
10946;BME280;5525;42.648;23.368;2023-02-23T06:40:10;94613.50;;;6.19;100.00
10946;BME280;5525;42.648;23.368;2023-02-23T06:42:37;94611.72;;;6.28;100.00
10946;BME280;5525;42.648;23.368;2023-02-23T06:45:04;94614.38;;;6.42;100.00
10946;BME280;5525;42.648;23.368;2023-02-23T06:47:32;94623.91;;;6.48;100.00
10946;BME280;5525;42.648;23.368;2023-02-23T06:49:59;94617.66;;;6.52;100.00
10946;BME280;5525;42.648;23.368;2023-02-23T06:52:28;94624.50;;;6.58;100.00
10946;BME280;5525;42.648;23.368;2023-02-23T06:54:55;94625.78;;;6.74;100.00
10946;BME280;5525;42.648;23.368;2023-02-23T06:57:22;94617.81;;;6.83;100.00
10946;BME280;5525;42.648;23.368;2023-02-23T06:59:48;94616.38;;;6.99;100.00
10946;BME280;5525;42.648;23.368;2023-02-23T07:02:15;94626.22;;;7.04;100.00
10946;BME280;5525;42.648;23.368;2023-02-23T07:04:42;94617.00;;;7.18;100.00
10946;BME280;5525;42.648;23.368;2023-02-23T07:07:10;94624.28;;;7.18;100.00
10946;BME280;5525;42.648;23.368;2023-02-23T07:09:39;94618.78;;;7.23;100.00
10946;BME280;5525;42.648;23.368;2023-02-23T07:12:07;94623.75;;;7.29;100.00
10946;BME280;5525;42.648;23.368;2023-02-23T07:14:34;94624.75;;;7.33;100.00
10946;BME280;5525;42.648;23.368;2023-02-23T07:17:02;94616.00;;;7.50;100.00
10946;BME280;5525;42.648;23.368;2023-02-23T07:19:29;94621.28;;;7.55;100.00
10946;BME280;5525;42.648;23.368;2023-02-23T07:21:55;94626.94;;;7.53;100.00
10946;BME280;5525;42.648;23.368;2023-02-23T07:24:22;94619.47;;;7.28;100.00
10946;BME280;5525;42.648;23.368;2023-02-23T07:26:50;94629.75;;;7.48;100.00
10946;BME280;5525;42.648;23.368;2023-02-23T07:29:17;94626.38;;;7.65;100.00
10946;BME280;5525;42.648;23.368;2023-02-23T07:31:44;94627.50;;;7.64;100.00
10946;BME280;5525;42.648;23.368;2023-02-23T07:34:11;94615.63;;;7.87;100.00
10946;BME280;5525;42.648;23.368;2023-02-23T07:36:38;94609.88;;;8.10;100.00
10946;BME280;5525;42.648;23.368;2023-02-23T07:39:04;94616.56;;;8.13;100.00
10946;BME280;5525;42.648;23.368;2023-02-23T07:41:32;94614.63;;;8.35;100.00
10946;BME280;5525;42.648;23.368;2023-02-23T07:44:00;94614.72;;;8.00;100.00
10946;BME280;5525;42.648;23.368;2023-02-23T07:46:27;94612.59;;;8.41;100.00
10946;BME280;5525;42.648;23.368;2023-02-23T07:48:53;94613.56;;;8.45;100.00
10946;BME280;5525;42.648;23.368;2023-02-23T07:51:20;94613.78;;;8.26;100.00
10946;BME280;5525;42.648;23.368;2023-02-23T07:53:47;94616.72;;;8.47;100.00
10946;BME280;5525;42.648;23.368;2023-02-23T07:56:14;94602.28;;;8.34;100.00
10946;BME280;5525;42.648;23.368;2023-02-23T07:58:43;94603.59;;;8.45;100.00
10946;BME280;5525;42.648;23.368;2023-02-23T08:01:12;94596.78;;;8.48;100.00
10946;BME280;5525;42.648;23.368;2023-02-23T08:03:39;94606.56;;;8.92;100.00
10946;BME280;5525;42.648;23.368;2023-02-23T08:06:06;94609.44;;;9.21;100.00
10946;BME280;5525;42.648;23.368;2023-02-23T08:08:33;94607.53;;;9.30;100.00
10946;BME280;5525;42.648;23.368;2023-02-23T08:11:00;94605.31;;;9.40;100.00
10946;BME280;5525;42.648;23.368;2023-02-23T08:13:27;94592.63;;;9.58;100.00
10946;BME280;5525;42.648;23.368;2023-02-23T08:15:56;94597.84;;;9.71;100.00
10946;BME280;5525;42.648;23.368;2023-02-23T08:18:24;94598.13;;;9.87;100.00
10946;BME280;5525;42.648;23.368;2023-02-23T08:20:57;94592.22;;;10.02;100.00
10946;BME280;5525;42.648;23.368;2023-02-23T08:23:23;94587.91;;;10.01;100.00
10946;BME280;5525;42.648;23.368;2023-02-23T08:25:50;94596.47;;;10.20;100.00
10946;BME280;5525;42.648;23.368;2023-02-23T08:28:18;94597.88;;;10.26;100.00
10946;BME280;5525;42.648;23.368;2023-02-23T08:30:45;94594.13;;;10.56;98.46
10946;BME280;5525;42.648;23.368;2023-02-23T08:33:11;94594.44;;;10.55;96.61
10946;BME280;5525;42.648;23.368;2023-02-23T08:35:39;94599.47;;;10.65;95.36
10946;BME280;5525;42.648;23.368;2023-02-23T08:38:06;94596.94;;;10.89;92.30
10946;BME280;5525;42.648;23.368;2023-02-23T08:40:33;94599.22;;;10.78;92.76
10946;BME280;5525;42.648;23.368;2023-02-23T08:42:59;94595.53;;;11.12;90.26
10946;BME280;5525;42.648;23.368;2023-02-23T08:45:26;94595.63;;;11.24;89.32
10946;BME280;5525;42.648;23.368;2023-02-23T08:47:54;94593.53;;;11.00;91.14
10946;BME280;5525;42.648;23.368;2023-02-23T08:50:20;94584.25;;;11.30;89.89
10946;BME280;5525;42.648;23.368;2023-02-23T08:52:49;94590.06;;;11.61;86.72
10946;BME280;5525;42.648;23.368;2023-02-23T08:55:15;94587.41;;;11.73;84.43
10946;BME280;5525;42.648;23.368;2023-02-23T08:57:42;94586.97;;;12.04;83.79
10946;BME280;5525;42.648;23.368;2023-02-23T09:00:10;94582.97;;;12.22;81.45
10946;BME280;5525;42.648;23.368;2023-02-23T09:02:41;94587.69;;;12.25;80.79
10946;BME280;5525;42.648;23.368;2023-02-23T09:05:09;94586.72;;;12.42;80.18
10946;BME280;5525;42.648;23.368;2023-02-23T09:07:36;94589.28;;;12.50;79.02
10946;BME280;5525;42.648;23.368;2023-02-23T09:10:07;94589.63;;;12.49;79.09
10946;BME280;5525;42.648;23.368;2023-02-23T09:12:34;94594.28;;;12.48;78.64
10946;BME280;5525;42.648;23.368;2023-02-23T09:15:01;94584.81;;;12.66;77.78
10946;BME280;5525;42.648;23.368;2023-02-23T09:17:27;94584.38;;;12.88;76.08
10946;BME280;5525;42.648;23.368;2023-02-23T09:19:54;94584.22;;;12.97;74.55
10946;BME280;5525;42.648;23.368;2023-02-23T09:22:21;94582.09;;;13.14;72.89
10946;BME280;5525;42.648;23.368;2023-02-23T09:24:47;94578.69;;;13.29;71.87
10946;BME280;5525;42.648;23.368;2023-02-23T09:27:16;94589.63;;;13.33;70.90
10946;BME280;5525;42.648;23.368;2023-02-23T09:29:42;94585.38;;;13.59;70.47
10946;BME280;5525;42.648;23.368;2023-02-23T09:32:10;94580.97;;;13.83;69.59
10946;BME280;5525;42.648;23.368;2023-02-23T09:34:36;94588.47;;;13.74;68.84
10946;BME280;5525;42.648;23.368;2023-02-23T09:37:03;94582.06;;;13.94;66.67
10946;BME280;5525;42.648;23.368;2023-02-23T09:39:31;94580.81;;;13.76;67.95
10946;BME280;5525;42.648;23.368;2023-02-23T09:42:32;94580.53;;;14.08;65.72
10946;BME280;5525;42.648;23.368;2023-02-23T09:45:10;94587.91;;;14.23;62.79
10946;BME280;5525;42.648;23.368;2023-02-23T09:47:45;94584.72;;;14.06;63.36
10946;BME280;5525;42.648;23.368;2023-02-23T09:50:20;94572.53;;;14.27;62.85
10946;BME280;5525;42.648;23.368;2023-02-23T09:52:52;94577.25;;;14.30;63.40
10946;BME280;5525;42.648;23.368;2023-02-23T09:55:20;94583.75;;;14.41;62.13
10946;BME280;5525;42.648;23.368;2023-02-23T09:57:49;94577.38;;;14.80;61.50
10946;BME280;5525;42.648;23.368;2023-02-23T10:00:19;94573.41;;;14.93;60.16
10946;BME280;5525;42.648;23.368;2023-02-23T10:03:09;94571.84;;;15.27;58.13
10946;BME280;5525;42.648;23.368;2023-02-23T10:05:42;94572.66;;;16.87;54.44
10946;BME280;5525;42.648;23.368;2023-02-23T10:08:19;94572.53;;;19.38;45.87
10946;BME280;5525;42.648;23.368;2023-02-23T10:10:50;94562.44;;;22.82;38.47
10946;BME280;5525;42.648;23.368;2023-02-23T10:13:30;94581.75;;;26.99;30.61
10946;BME280;5525;42.648;23.368;2023-02-23T10:16:07;94574.19;;;28.56;26.28
10946;BME280;5525;42.648;23.368;2023-02-23T10:18:41;94569.03;;;29.71;23.62
10946;BME280;5525;42.648;23.368;2023-02-23T10:21:15;94580.66;;;31.64;21.68
10946;BME280;5525;42.648;23.368;2023-02-23T10:23:48;94573.66;;;32.71;20.76
10946;BME280;5525;42.648;23.368;2023-02-23T10:26:20;94570.34;;;33.92;19.60
10946;BME280;5525;42.648;23.368;2023-02-23T10:28:51;94575.53;;;35.86;17.98
10946;BME280;5525;42.648;23.368;2023-02-23T10:31:26;94564.97;;;32.87;19.02
10946;BME280;5525;42.648;23.368;2023-02-23T10:33:56;94559.97;;;32.28;19.92
10946;BME280;5525;42.648;23.368;2023-02-23T10:36:32;94559.34;;;33.38;18.95
10946;BME280;5525;42.648;23.368;2023-02-23T10:39:03;94555.88;;;34.70;17.80
10946;BME280;5525;42.648;23.368;2023-02-23T10:41:33;94559.44;;;35.87;16.74
10946;BME280;5525;42.648;23.368;2023-02-23T10:44:03;94559.91;;;35.36;17.54
10946;BME280;5525;42.648;23.368;2023-02-23T10:46:37;94554.06;;;32.98;18.60
10946;BME280;5525;42.648;23.368;2023-02-23T10:49:06;94545.50;;;34.23;17.99
10946;BME280;5525;42.648;23.368;2023-02-23T10:51:38;94541.78;;;34.79;17.59
10946;BME280;5525;42.648;23.368;2023-02-23T10:54:34;94547.28;;;36.15;16.86
10946;BME280;5525;42.648;23.368;2023-02-23T10:57:03;94540.47;;;37.33;15.82
10946;BME280;5525;42.648;23.368;2023-02-23T10:59:33;94536.63;;;36.59;16.23
10946;BME280;5525;42.648;23.368;2023-02-23T11:02:15;94539.84;;;36.12;16.49
10946;BME280;5525;42.648;23.368;2023-02-23T11:04:52;94534.81;;;37.33;15.70
10946;BME280;5525;42.648;23.368;2023-02-23T11:07:24;94533.88;;;36.45;16.33
10946;BME280;5525;42.648;23.368;2023-02-23T11:09:54;94530.69;;;37.03;15.74
10946;BME280;5525;42.648;23.368;2023-02-23T11:12:23;94529.31;;;36.27;15.83
10946;BME280;5525;42.648;23.368;2023-02-23T11:14:56;94522.00;;;37.06;15.42
10946;BME280;5525;42.648;23.368;2023-02-23T11:17:30;94521.28;;;37.37;15.13
10946;BME280;5525;42.648;23.368;2023-02-23T11:20:00;94508.19;;;31.60;18.46
10946;BME280;5525;42.648;23.368;2023-02-23T11:22:33;94507.53;;;33.98;17.79
10946;BME280;5525;42.648;23.368;2023-02-23T11:25:13;94510.25;;;35.13;16.46
10946;BME280;5525;42.648;23.368;2023-02-23T11:27:46;94511.13;;;35.68;16.23
10946;BME280;5525;42.648;23.368;2023-02-23T11:30:19;94510.59;;;34.77;16.97
10946;BME280;5525;42.648;23.368;2023-02-23T11:32:50;94496.41;;;33.89;17.62
10946;BME280;5525;42.648;23.368;2023-02-23T11:35:28;94500.38;;;33.74;17.71
10946;BME280;5525;42.648;23.368;2023-02-23T11:37:56;94496.78;;;30.88;19.48
10946;BME280;5525;42.648;23.368;2023-02-23T11:40:25;94497.28;;;30.74;19.79
10946;BME280;5525;42.648;23.368;2023-02-23T11:42:54;94484.97;;;31.14;19.50
10946;BME280;5525;42.648;23.368;2023-02-23T11:45:25;94480.25;;;33.61;18.07
10946;BME280;5525;42.648;23.368;2023-02-23T11:47:55;94475.72;;;32.80;18.17
10946;BME280;5525;42.648;23.368;2023-02-23T11:50:26;94476.44;;;33.73;17.43
10946;BME280;5525;42.648;23.368;2023-02-23T11:53:01;94480.97;;;32.27;17.91
10946;BME280;5525;42.648;23.368;2023-02-23T11:55:31;94477.69;;;30.13;19.72
10946;BME280;5525;42.648;23.368;2023-02-23T11:58:21;94467.41;;;30.22;19.99
10946;BME280;5525;42.648;23.368;2023-02-23T12:00:59;94469.78;;;30.11;20.08
10946;BME280;5525;42.648;23.368;2023-02-23T12:03:30;94469.09;;;28.26;21.78
10946;BME280;5525;42.648;23.368;2023-02-23T12:05:59;94464.28;;;27.25;22.89
10946;BME280;5525;42.648;23.368;2023-02-23T12:08:36;94464.84;;;27.20;23.13
10946;BME280;5525;42.648;23.368;2023-02-23T12:11:09;94459.44;;;27.13;23.47
10946;BME280;5525;42.648;23.368;2023-02-23T12:13:40;94465.03;;;26.25;24.76
10946;BME280;5525;42.648;23.368;2023-02-23T12:16:16;94462.97;;;26.29;24.53
10946;BME280;5525;42.648;23.368;2023-02-23T12:18:48;94455.22;;;26.92;23.87
10946;BME280;5525;42.648;23.368;2023-02-23T12:21:30;94457.78;;;26.67;24.27
10946;BME280;5525;42.648;23.368;2023-02-23T12:24:17;94447.44;;;25.96;25.20
10946;BME280;5525;42.648;23.368;2023-02-23T12:26:49;94456.25;;;25.06;26.22
10946;BME280;5525;42.648;23.368;2023-02-23T12:29:22;94447.09;;;24.86;26.41
10946;BME280;5525;42.648;23.368;2023-02-23T12:31:58;94449.09;;;24.32;27.06
10946;BME280;5525;42.648;23.368;2023-02-23T12:34:30;94449.47;;;22.42;29.50
10946;BME280;5525;42.648;23.368;2023-02-23T12:37:00;94445.72;;;22.11;30.14
10946;BME280;5525;42.648;23.368;2023-02-23T12:39:35;94450.22;;;21.77;30.79
10946;BME280;5525;42.648;23.368;2023-02-23T12:42:10;94448.81;;;21.20;31.84
10946;BME280;5525;42.648;23.368;2023-02-23T12:44:43;94445.28;;;21.23;31.94
10946;BME280;5525;42.648;23.368;2023-02-23T12:47:22;94442.53;;;21.26;32.18
10946;BME280;5525;42.648;23.368;2023-02-23T12:49:56;94443.72;;;21.18;32.27
10946;BME280;5525;42.648;23.368;2023-02-23T12:52:36;94447.69;;;20.61;33.33
10946;BME280;5525;42.648;23.368;2023-02-23T12:55:09;94441.41;;;20.64;33.43
10946;BME280;5525;42.648;23.368;2023-02-23T12:57:44;94442.59;;;20.60;33.64
10946;BME280;5525;42.648;23.368;2023-02-23T13:00:37;94443.75;;;20.38;34.11
10946;BME280;5525;42.648;23.368;2023-02-23T13:03:52;94439.44;;;20.51;34.09
10946;BME280;5525;42.648;23.368;2023-02-23T13:06:27;94421.03;;;20.72;33.80
10946;BME280;5525;42.648;23.368;2023-02-23T13:09:04;94428.84;;;20.56;33.96
10946;BME280;5525;42.648;23.368;2023-02-23T13:11:57;94432.78;;;20.59;33.83
10946;BME280;5525;42.648;23.368;2023-02-23T13:14:31;94430.03;;;20.66;33.80
10946;BME280;5525;42.648;23.368;2023-02-23T13:17:07;94428.47;;;20.23;34.15
10946;BME280;5525;42.648;23.368;2023-02-23T13:19:47;94430.41;;;19.15;35.92
10946;BME280;5525;42.648;23.368;2023-02-23T13:22:27;94422.78;;;19.56;35.37
10946;BME280;5525;42.648;23.368;2023-02-23T13:24:59;94422.03;;;19.62;35.28
10946;BME280;5525;42.648;23.368;2023-02-23T13:27:32;94430.22;;;19.55;35.80
10946;BME280;5525;42.648;23.368;2023-02-23T13:30:00;94427.50;;;19.62;35.49
10946;BME280;5525;42.648;23.368;2023-02-23T13:32:31;94417.31;;;19.59;35.75
10946;BME280;5525;42.648;23.368;2023-02-23T13:35:03;94430.88;;;19.31;36.03
10946;BME280;5525;42.648;23.368;2023-02-23T13:37:39;94419.22;;;19.41;36.14